Time;durP1;ratioP1;P1;durP2;ratioP2;P2;SDS_P1;SDS_P2;PMS_P1;PMS_P2;Temp;Humidity;BMP_temperature;BMP_pressure;BME280_temperature;BME280_humidity;BME280_pressure;Samples;Min_cycle;Max_cycle;Signal;HPM_P1;HPM_P2
2023/04/03 00:02:11;;;;;;;8.52;5.07;;;;;;;6.74;100.00;96898.47;4992737;28;20089;-76
2023/04/03 00:04:36;;;;;;;6.72;4.47;;;;;;;6.64;100.00;96891.16;4992977;28;20041;-77
2023/04/03 00:07:02;;;;;;;9.57;4.07;;;;;;;6.60;100.00;96895.75;4975481;28;20066;-75
2023/04/03 00:09:27;;;;;;;11.55;4.22;;;;;;;6.48;100.00;96876.06;4975088;28;20025;-77
2023/04/03 00:11:53;;;;;;;8.30;4.40;;;;;;;6.56;100.00;96883.59;4975388;28;20078;-77
2023/04/03 00:14:19;;;;;;;8.10;4.60;;;;;;;6.58;100.00;96881.72;4959426;28;20030;-76
2023/04/03 00:16:44;;;;;;;12.80;5.65;;;;;;;6.45;100.00;96875.38;4959043;28;20066;-77
2023/04/03 00:19:11;;;;;;;9.10;4.82;;;;;;;6.48;100.00;96872.56;4958388;28;20030;-77
2023/04/03 00:21:37;;;;;;;10.73;5.43;;;;;;;6.47;100.00;96877.00;4957798;28;20022;-76
2023/04/03 00:24:03;;;;;;;8.63;4.97;;;;;;;6.44;100.00;96876.31;4959028;28;20040;-77
2023/04/03 00:26:29;;;;;;;11.48;4.90;;;;;;;6.40;100.00;96864.16;4975122;28;20034;-75
2023/04/03 00:28:54;;;;;;;7.95;4.45;;;;;;;6.42;100.00;96876.41;4974633;28;20031;-77
2023/04/03 00:31:20;;;;;;;8.75;4.95;;;;;;;6.45;100.00;96864.75;4973473;28;20037;-76
2023/04/03 00:33:45;;;;;;;9.20;4.82;;;;;;;6.44;100.00;96873.66;4975096;28;20110;-76
2023/04/03 00:36:12;;;;;;;9.25;4.75;;;;;;;6.35;100.00;96866.22;4992065;28;20418;-76
2023/04/03 00:38:38;;;;;;;10.65;4.90;;;;;;;6.37;100.00;96869.63;4958041;28;20105;-75
2023/04/03 00:41:04;;;;;;;7.55;4.68;;;;;;;6.35;100.00;96866.22;4975069;28;20030;-76
2023/04/03 00:43:30;;;;;;;10.05;5.75;;;;;;;6.30;100.00;96861.19;4975064;28;20406;-76
2023/04/03 00:45:57;;;;;;;10.07;4.97;;;;;;;6.28;100.00;96862.19;4974840;28;20040;-74
2023/04/03 00:48:30;;;;;;;11.45;5.10;;;;;;;6.30;100.00;96881.56;4974871;28;20130;-76
2023/04/03 00:50:57;;;;;;;7.20;4.18;;;;;;;6.25;100.00;96879.16;4974707;28;20114;-76
2023/04/03 00:53:25;;;;;;;9.93;4.57;;;;;;;6.19;100.00;96874.19;4974799;28;20389;-75
2023/04/03 00:55:52;;;;;;;8.57;3.88;;;;;;;6.11;100.00;96880.84;4973897;28;20117;-75
2023/04/03 00:58:20;;;;;;;8.50;4.15;;;;;;;6.04;100.00;96875.03;4974290;28;20036;-76
2023/04/03 01:00:50;;;;;;;6.72;3.90;;;;;;;5.90;100.00;96866.97;4974993;28;20030;-76
2023/04/03 01:03:15;;;;;;;7.93;4.30;;;;;;;5.90;100.00;96882.88;4960865;28;20405;-76
2023/04/03 01:05:41;;;;;;;10.05;4.68;;;;;;;5.92;100.00;96876.56;4958282;28;20022;-77
2023/04/03 01:08:06;;;;;;;7.05;4.50;;;;;;;5.87;100.00;96865.34;4958199;28;20033;-76
2023/04/03 01:10:32;;;;;;;8.57;4.38;;;;;;;5.85;100.00;96880.47;4974376;28;20564;-77
2023/04/03 01:12:59;;;;;;;7.65;4.10;;;;;;;5.85;100.00;96891.09;4974725;28;20487;-76
2023/04/03 01:15:28;;;;;;;9.30;4.22;;;;;;;5.81;100.00;96892.19;4973717;28;20031;-76
2023/04/03 01:18:00;;;;;;;8.63;4.18;;;;;;;5.78;100.00;96896.78;4969558;28;20026;-78
2023/04/03 01:20:32;;;;;;;7.20;4.10;;;;;;;5.71;100.00;96887.44;4974893;28;20026;-75
2023/04/03 01:23:09;;;;;;;6.03;4.23;;;;;;;5.64;100.00;96886.03;4969153;28;20030;-75
2023/04/03 01:25:54;;;;;;;8.05;4.45;;;;;;;5.65;100.00;96890.41;4974081;28;20277;-76
2023/04/03 01:28:24;;;;;;;7.28;4.50;;;;;;;5.62;100.00;96886.13;4973904;28;20029;-76
2023/04/03 01:31:05;;;;;;;7.13;4.32;;;;;;;5.66;100.00;96900.09;4991292;28;20457;-77
2023/04/03 01:33:30;;;;;;;7.82;4.10;;;;;;;5.63;100.00;96902.91;4991539;28;20052;-77
2023/04/03 01:35:56;;;;;;;7.65;3.80;;;;;;;5.57;100.00;96903.22;4966577;28;20130;-76
2023/04/03 01:38:21;;;;;;;5.45;3.50;;;;;;;5.56;100.00;96897.06;4938300;28;20109;-76
2023/04/03 01:40:47;;;;;;;6.03;3.97;;;;;;;5.59;100.00;96899.56;4954619;28;20027;-76
2023/04/03 01:43:13;;;;;;;7.05;4.47;;;;;;;5.55;100.00;96882.06;4954900;28;20026;-77
2023/04/03 01:45:38;;;;;;;6.65;4.47;;;;;;;5.56;100.00;96889.09;4954560;28;20027;-76
2023/04/03 01:48:04;;;;;;;6.28;4.22;;;;;;;5.55;100.00;96884.72;4954616;28;20493;-76
2023/04/03 01:50:30;;;;;;;9.13;3.85;;;;;;;5.57;100.00;96885.50;4938568;28;20038;-77
2023/04/03 01:52:56;;;;;;;8.43;4.22;;;;;;;5.47;100.00;96885.13;4954666;28;20420;-78
2023/04/03 01:55:21;;;;;;;13.88;3.92;;;;;;;5.52;100.00;96887.53;4938274;28;20030;-75
2023/04/03 01:57:47;;;;;;;6.70;3.78;;;;;;;5.49;100.00;96887.72;4954126;28;20030;-75
2023/04/03 02:00:13;;;;;;;8.70;4.05;;;;;;;5.43;100.00;96883.59;4938519;28;20093;-76
2023/04/03 02:02:39;;;;;;;6.55;4.10;;;;;;;5.45;100.00;96879.06;4954465;28;20026;-76
2023/04/03 02:05:05;;;;;;;7.72;4.60;;;;;;;5.56;100.00;96893.56;4938464;28;20038;-76
2023/04/03 02:07:33;;;;;;;7.85;4.75;;;;;;;5.60;100.00;96895.94;4971401;28;20027;-77
2023/04/03 02:09:59;;;;;;;15.98;4.53;;;;;;;5.56;100.00;96901.50;4958019;28;20185;-75
2023/04/03 02:12:24;;;;;;;8.48;4.53;;;;;;;5.56;100.00;96902.38;4975907;28;20500;-76
2023/04/03 02:14:50;;;;;;;14.13;4.95;;;;;;;5.55;100.00;96891.81;4941932;28;20054;-76
2023/04/03 02:17:16;;;;;;;12.38;5.72;;;;;;;5.47;100.00;96890.44;4942176;28;20031;-76
2023/04/03 02:19:41;;;;;;;13.07;4.97;;;;;;;5.46;100.00;96895.81;4975489;28;20030;-76
2023/04/03 02:22:07;;;;;;;11.90;6.13;;;;;;;5.43;100.00;96893.34;4958284;28;20093;-77
2023/04/03 02:24:32;;;;;;;10.27;4.55;;;;;;;5.45;100.00;96886.16;4958290;28;20030;-78
2023/04/03 02:26:59;;;;;;;8.75;4.90;;;;;;;5.41;100.00;96884.63;4941675;28;20105;-77
2023/04/03 02:29:24;;;;;;;13.63;5.47;;;;;;;5.33;100.00;96886.78;4957963;28;20030;-77
2023/04/03 02:31:50;;;;;;;9.38;5.05;;;;;;;5.27;100.00;96881.81;4957222;28;20042;-76
2023/04/03 02:34:16;;;;;;;7.22;4.45;;;;;;;5.34;100.00;96883.22;4942167;28;20037;-75
2023/04/03 02:36:42;;;;;;;11.23;5.38;;;;;;;5.31;100.00;96875.41;4969823;28;20054;-76
2023/04/03 02:39:08;;;;;;;10.30;4.53;;;;;;;5.20;100.00;96870.66;4976547;28;20034;-75
2023/04/03 02:41:35;;;;;;;10.50;4.20;;;;;;;5.18;100.00;96869.88;4957466;28;20113;-76
2023/04/03 02:44:05;;;;;;;13.52;4.43;;;;;;;5.11;100.00;96876.44;4960045;28;20467;-76
2023/04/03 02:46:31;;;;;;;11.95;4.90;;;;;;;5.04;100.00;96869.75;4977159;28;20505;-77
2023/04/03 02:48:57;;;;;;;11.40;4.57;;;;;;;4.97;100.00;96878.06;4960430;28;20026;-76
2023/04/03 02:51:23;;;;;;;16.30;4.82;;;;;;;4.89;100.00;96863.41;4975127;28;20100;-75
2023/04/03 02:53:49;;;;;;;7.60;4.20;;;;;;;4.88;100.00;96860.84;4994263;28;20030;-76
2023/04/03 02:56:15;;;;;;;7.65;4.22;;;;;;;4.88;100.00;96864.38;4976679;28;20091;-75
2023/04/03 02:58:40;;;;;;;17.17;4.60;;;;;;;4.84;100.00;96868.09;4976912;28;20045;-76
2023/04/03 03:01:06;;;;;;;11.60;5.13;;;;;;;4.93;100.00;96872.94;4960623;28;20034;-76
2023/04/03 03:03:32;;;;;;;6.82;3.88;;;;;;;4.84;100.00;96878.69;4976826;28;20087;-77
2023/04/03 03:06:07;;;;;;;10.25;4.47;;;;;;;4.72;100.00;96863.41;4960333;28;20030;-76
2023/04/03 03:08:32;;;;;;;26.45;7.68;;;;;;;4.76;100.00;96877.38;4976625;28;20391;-76
2023/04/03 03:10:58;;;;;;;15.52;5.15;;;;;;;4.79;100.00;96880.72;4976687;28;20034;-77
2023/04/03 03:13:24;;;;;;;16.73;5.65;;;;;;;4.74;100.00;96872.13;4956938;28;20130;-76
2023/04/03 03:15:50;;;;;;;21.25;5.22;;;;;;;4.85;100.00;96882.19;4956893;28;20038;-76
2023/04/03 03:18:15;;;;;;;11.43;4.68;;;;;;;4.83;100.00;96873.44;4974986;28;20049;-77
2023/04/03 03:20:41;;;;;;;8.43;4.35;;;;;;;4.68;100.00;96867.13;4959963;28;20121;-78
2023/04/03 03:23:06;;;;;;;16.70;5.20;;;;;;;4.61;100.00;96879.00;4960133;28;20088;-76
2023/04/03 03:25:32;;;;;;;11.40;5.18;;;;;;;4.59;100.00;96872.88;4960279;28;20045;-77
2023/04/03 03:27:57;;;;;;;9.45;5.20;;;;;;;4.60;100.00;96885.22;4958567;28;20022;-76
2023/04/03 03:30:23;;;;;;;9.82;5.60;;;;;;;4.62;100.00;96882.47;4958973;28;20038;-76
2023/04/03 03:32:49;;;;;;;16.83;6.05;;;;;;;4.59;100.00;96872.88;4959305;28;20030;-75
2023/04/03 03:35:14;;;;;;;19.05;6.20;;;;;;;4.57;100.00;96874.75;4976029;28;20038;-75
2023/04/03 03:37:40;;;;;;;10.75;5.30;;;;;;;4.54;100.00;96880.22;4959819;28;20027;-75
2023/04/03 03:40:06;;;;;;;16.08;6.72;;;;;;;4.55;100.00;96876.66;4960184;28;20466;-76
2023/04/03 03:42:31;;;;;;;16.23;6.90;;;;;;;4.55;100.00;96879.28;4960208;28;20347;-84
2023/04/03 03:44:57;;;;;;;10.68;5.65;;;;;;;4.54;100.00;96877.56;4976860;28;20037;-82
2023/04/03 03:47:23;;;;;;;25.60;9.82;;;;;;;4.48;100.00;96867.28;4957133;28;20030;-81
2023/04/03 03:49:48;;;;;;;24.65;10.80;;;;;;;4.53;100.00;96875.84;4963918;28;20561;-84
2023/04/03 03:52:14;;;;;;;25.98;13.27;;;;;;;4.42;100.00;96861.41;4960413;28;20107;-80
2023/04/03 03:54:39;;;;;;;18.08;8.95;;;;;;;4.50;100.00;96883.06;4959470;28;20026;-79
2023/04/03 03:57:05;;;;;;;21.90;10.18;;;;;;;4.49;100.00;96876.91;4960365;28;20061;-80
2023/04/03 03:59:31;;;;;;;14.27;6.07;;;;;;;4.55;100.00;96889.88;4960349;28;20030;-81
2023/04/03 04:01:56;;;;;;;23.63;8.25;;;;;;;4.49;100.00;96876.91;4960478;28;20121;-81
2023/04/03 04:04:22;;;;;;;16.13;8.13;;;;;;;4.41;100.00;96871.13;4958012;28;20537;-76
2023/04/03 04:06:47;;;;;;;13.55;7.15;;;;;;;4.34;100.00;96861.78;4975579;28;20477;-77
2023/04/03 04:09:13;;;;;;;7.65;4.70;;;;;;;4.47;100.00;96884.09;4973477;28;20018;-77
2023/04/03 04:11:40;;;;;;;16.48;6.97;;;;;;;4.51;100.00;96890.94;4975682;28;20031;-77
2023/04/03 04:14:06;;;;;;;22.45;6.85;;;;;;;4.57;100.00;96889.78;4976126;28;20026;-81
2023/04/03 04:16:32;;;;;;;13.70;5.40;;;;;;;4.67;100.00;96896.38;4957824;28;20027;-79
2023/04/03 04:18:57;;;;;;;17.77;4.97;;;;;;;4.61;100.00;96891.38;4956527;28;20130;-80
2023/04/03 04:21:23;;;;;;;14.43;5.50;;;;;;;4.60;100.00;96879.91;4960016;28;20085;-80
2023/04/03 04:23:48;;;;;;;9.85;4.82;;;;;;;4.59;100.00;96879.97;4956299;28;20085;-79
2023/04/03 04:26:14;;;;;;;20.15;4.90;;;;;;;4.62;100.00;96895.72;4955049;28;20022;-78
2023/04/03 04:28:40;;;;;;;16.10;4.95;;;;;;;4.60;100.00;96901.09;4957113;28;20073;-79
2023/04/03 04:31:05;;;;;;;10.90;5.07;;;;;;;4.76;100.00;96907.38;4958960;28;20105;-78
2023/04/03 04:33:31;;;;;;;13.23;6.05;;;;;;;4.76;100.00;96903.84;4975703;28;20042;-79
2023/04/03 04:35:56;;;;;;;21.92;6.57;;;;;;;4.82;100.00;96908.84;4958874;28;20121;-79
2023/04/03 04:38:22;;;;;;;11.30;5.28;;;;;;;4.86;100.00;96905.94;4959386;28;20410;-78
2023/04/03 04:40:48;;;;;;;23.27;7.05;;;;;;;4.86;100.00;96900.66;4992926;28;20104;-80
2023/04/03 04:43:14;;;;;;;20.60;6.47;;;;;;;4.93;100.00;96912.66;4959437;28;20034;-79
2023/04/03 04:45:40;;;;;;;9.13;5.63;;;;;;;5.00;100.00;96922.97;4975663;28;20034;-80
2023/04/03 04:48:06;;;;;;;13.95;7.47;;;;;;;5.10;100.00;96927.75;4976506;28;20038;-82
2023/04/03 04:50:32;;;;;;;25.92;8.13;;;;;;;5.12;100.00;96915.25;4959443;28;20030;-80
2023/04/03 04:52:57;;;;;;;24.05;7.90;;;;;;;5.21;100.00;96921.88;4958918;28;20034;-79
2023/04/03 04:55:23;;;;;;;36.42;11.13;;;;;;;5.31;100.00;96923.13;4959059;28;20478;-80
2023/04/03 04:57:48;;;;;;;18.60;8.48;;;;;;;5.48;100.00;96939.88;4959118;28;20038;-83
2023/04/03 05:00:15;;;;;;;15.73;7.05;;;;;;;5.62;100.00;96936.53;4959256;28;20097;-81
2023/04/03 05:02:40;;;;;;;19.13;7.95;;;;;;;5.55;100.00;96916.56;4959740;28;20038;-79
2023/04/03 05:05:06;;;;;;;13.98;6.75;;;;;;;5.70;100.00;96922.84;4958795;28;20052;-76
2023/04/03 05:07:32;;;;;;;28.67;9.38;;;;;;;5.84;100.00;96923.84;4961180;28;20117;-83
2023/04/03 05:09:57;;;;;;;28.95;10.15;;;;;;;5.81;100.00;96926.66;4958669;28;20486;-79
2023/04/03 05:12:23;;;;;;;38.38;9.80;;;;;;;5.79;100.00;96909.94;4974771;28;20042;-81
2023/04/03 05:14:49;;;;;;;19.73;8.30;;;;;;;5.88;100.00;96916.59;4958620;28;20038;-82
2023/04/03 05:17:14;;;;;;;27.20;8.68;;;;;;;6.04;100.00;96933.41;4975114;28;20026;-80
2023/04/03 05:19:40;;;;;;;32.47;9.45;;;;;;;6.17;100.00;96917.69;4959011;28;20482;-81
2023/04/03 05:22:06;;;;;;;33.05;10.05;;;;;;;6.35;100.00;96928.16;4958530;28;20038;-78
2023/04/03 05:24:31;;;;;;;25.13;10.02;;;;;;;6.42;100.00;96912.75;4958603;28;20088;-79
2023/04/03 05:26:57;;;;;;;17.13;8.32;;;;;;;6.52;100.00;96905.97;4974396;28;20034;-78
2023/04/03 05:29:22;;;;;;;25.85;9.70;;;;;;;6.75;100.00;96918.81;4958360;28;20039;-78
2023/04/03 05:31:51;;;;;;;35.60;11.63;;;;;;;6.90;100.00;96922.38;4966184;28;20030;-81
2023/04/03 05:34:16;;;;;;;24.95;9.73;;;;;;;7.01;100.00;96934.09;4958147;28;20038;-82
2023/04/03 05:36:42;;;;;;;27.30;13.38;;;;;;;7.01;100.00;96914.66;4974285;28;20050;-79
2023/04/03 05:39:08;;;;;;;27.00;11.10;;;;;;;7.22;100.00;96918.72;4957919;28;20034;-79
2023/04/03 05:41:34;;;;;;;30.40;11.23;;;;;;;7.38;100.00;96929.31;4958265;28;20026;-80
2023/04/03 05:43:59;;;;;;;37.13;11.80;;;;;;;7.66;100.00;96905.41;4957941;28;20034;-79
2023/04/03 05:46:25;;;;;;;37.63;17.15;;;;;;;7.90;100.00;96908.41;4956969;28;20442;-80
2023/04/03 05:48:51;;;;;;;70.63;27.73;;;;;;;8.02;100.00;96897.84;4958666;28;20049;-80
2023/04/03 05:51:25;;;;;;;39.53;18.20;;;;;;;8.17;100.00;96896.88;4973832;28;20041;-79
2023/04/03 05:53:56;;;;;;;24.17;12.25;;;;;;;8.26;100.00;96894.59;4974524;28;20045;-81
2023/04/03 05:56:22;;;;;;;44.47;13.77;;;;;;;8.27;100.00;96875.00;4957514;28;20041;-79
2023/04/03 05:58:48;;;;;;;27.40;13.73;;;;;;;8.48;100.00;96882.50;4957903;28;20409;-81
2023/04/03 06:01:14;;;;;;;28.15;11.02;;;;;;;8.75;100.00;96877.19;4974100;28;20038;-80
2023/04/03 06:03:40;;;;;;;23.80;11.95;;;;;;;8.92;100.00;96868.09;4957886;28;20022;-79
2023/04/03 06:06:06;;;;;;;20.17;8.50;;;;;;;9.00;100.00;96866.63;4957833;28;20103;-79
2023/04/03 06:08:31;;;;;;;28.88;14.25;;;;;;;9.03;100.00;96866.41;4973886;28;20038;-80
2023/04/03 06:10:57;;;;;;;30.65;13.98;;;;;;;9.27;100.00;96886.09;4957906;28;20113;-79
2023/04/03 06:13:23;;;;;;;31.25;14.02;;;;;;;9.19;100.00;96866.25;4957501;28;20034;-83
2023/04/03 06:15:49;;;;;;;34.10;13.35;;;;;;;9.15;100.00;96868.25;4973935;28;20042;-79
2023/04/03 06:18:15;;;;;;;41.85;15.18;;;;;;;9.29;100.00;96879.81;4955523;28;20027;-80
2023/04/03 06:20:40;;;;;;;34.22;16.65;;;;;;;9.31;100.00;96861.88;4957877;28;20135;-80
2023/04/03 06:23:06;;;;;;;39.55;15.88;;;;;;;9.33;100.00;96851.94;4958606;28;20061;-80
2023/04/03 06:25:33;;;;;;;36.67;11.57;;;;;;;9.07;100.00;96843.91;4951997;28;20041;-80
2023/04/03 06:27:59;;;;;;;18.35;10.13;;;;;;;9.27;100.00;96850.56;4974446;28;20049;-80
2023/04/03 06:30:24;;;;;;;17.77;9.68;;;;;;;9.49;100.00;96848.13;4974076;28;20097;-85
2023/04/03 06:32:50;;;;;;;22.40;10.57;;;;;;;9.68;100.00;96858.41;4957802;28;20018;-80
2023/04/03 06:35:15;;;;;;;21.52;9.00;;;;;;;9.99;100.00;96852.63;4957469;28;20518;-81
2023/04/03 06:37:41;;;;;;;25.60;8.50;;;;;;;10.61;100.00;96856.13;4974058;28;20053;-80
2023/04/03 06:40:10;;;;;;;17.17;8.13;;;;;;;11.25;100.00;96836.16;4958024;28;20026;-80
2023/04/03 06:42:35;;;;;;;19.70;8.80;;;;;;;11.51;100.00;96818.06;4973576;28;20022;-81
2023/04/03 06:45:01;;;;;;;24.70;11.95;;;;;;;11.43;100.00;96824.03;4973914;28;20026;-81
2023/04/03 06:47:27;;;;;;;25.50;10.57;;;;;;;11.78;100.00;96826.66;4957885;28;20033;-84
2023/04/03 06:49:52;;;;;;;21.60;10.18;;;;;;;12.22;100.00;96820.47;4958112;28;20032;-81
2023/04/03 06:52:18;;;;;;;23.50;9.20;;;;;;;12.75;94.60;96793.78;4958245;28;20469;-80
2023/04/03 06:54:43;;;;;;;23.95;9.40;;;;;;;13.21;90.43;96801.56;4974853;28;20035;-82
2023/04/03 06:57:09;;;;;;;21.27;9.63;;;;;;;13.73;86.77;96800.66;4977973;28;20030;-79
2023/04/03 06:59:35;;;;;;;17.70;8.82;;;;;;;14.19;81.96;96809.09;4994664;28;20034;-81
2023/04/03 07:02:01;;;;;;;20.90;9.68;;;;;;;14.37;80.64;96788.66;4994757;28;20026;-80
2023/04/03 07:04:26;;;;;;;21.45;9.43;;;;;;;14.37;79.07;96772.53;4994145;28;20096;-81
2023/04/03 07:06:52;;;;;;;19.17;9.77;;;;;;;13.63;82.28;96767.53;4977609;28;20379;-80
2023/04/03 07:09:18;;;;;;;23.80;9.90;;;;;;;13.17;87.51;96784.88;4977250;28;20481;-81
2023/04/03 07:11:44;;;;;;;14.85;8.50;;;;;;;13.18;88.08;96781.22;4960971;28;20481;-81
2023/04/03 07:14:09;;;;;;;19.17;9.27;;;;;;;13.37;87.20;96786.72;4977293;28;20038;-81
2023/04/03 07:16:35;;;;;;;27.75;10.25;;;;;;;13.19;88.78;96793.66;4976934;28;20027;-80
2023/04/03 07:19:01;;;;;;;21.95;9.23;;;;;;;13.48;87.53;96788.47;4960586;28;20038;-79
2023/04/03 07:21:27;;;;;;;17.85;8.90;;;;;;;13.54;86.38;96799.56;4976945;28;20018;-81
2023/04/03 07:23:53;;;;;;;24.20;8.82;;;;;;;13.75;85.51;96796.03;4960547;28;20478;-80
2023/04/03 07:26:20;;;;;;;17.67;9.38;;;;;;;13.93;83.29;96789.03;4976933;28;20048;-81
2023/04/03 07:28:48;;;;;;;20.88;8.48;;;;;;;14.06;82.42;96800.41;4960619;28;20030;-81
2023/04/03 07:31:14;;;;;;;17.35;9.77;;;;;;;14.11;82.05;96790.13;4957264;28;20031;-81
2023/04/03 07:33:41;;;;;;;13.68;7.70;;;;;;;14.33;80.43;96798.03;4959304;28;20402;-81
2023/04/03 07:36:07;;;;;;;15.57;7.60;;;;;;;14.47;79.91;96800.31;4960452;28;20046;-81
2023/04/03 07:38:35;;;;;;;15.93;7.68;;;;;;;14.54;77.57;96790.72;4976171;28;20042;-82
2023/04/03 07:41:01;;;;;;;13.63;7.35;;;;;;;14.70;76.76;96775.88;4960668;28;20032;-81
2023/04/03 07:43:27;;;;;;;19.65;8.05;;;;;;;14.79;74.07;96789.34;4960418;28;20034;-80
2023/04/03 07:45:54;;;;;;;15.20;6.13;;;;;;;15.19;72.40;96791.94;4976070;28;20069;-80
2023/04/03 07:48:25;;;;;;;16.58;6.88;;;;;;;15.28;71.05;96784.84;4960597;28;20030;-81
2023/04/03 07:50:51;;;;;;;19.35;8.85;;;;;;;15.52;68.75;96772.66;4959894;28;20485;-80
2023/04/03 07:53:17;;;;;;;17.48;10.40;;;;;;;15.09;72.02;96777.59;4976271;28;20026;-81
2023/04/03 07:55:42;;;;;;;16.95;9.07;;;;;;;15.12;73.02;96785.41;4960248;28;20035;-81
2023/04/03 07:58:14;;;;;;;10.43;5.85;;;;;;;15.57;71.31;96789.22;4959451;28;20030;-81
2023/04/03 08:00:40;;;;;;;7.83;4.67;;;;;;;15.93;66.58;96771.41;4959899;28;20058;-81
2023/04/03 08:03:06;;;;;;;10.05;5.43;;;;;;;15.88;66.09;96764.75;4960022;28;20057;-81
2023/04/03 08:05:37;;;;;;;11.00;5.13;;;;;;;16.66;61.40;96759.72;4959525;28;20031;-81
2023/04/03 08:08:03;;;;;;;9.98;4.78;;;;;;;16.97;59.99;96751.28;4959219;28;20521;-80
2023/04/03 08:10:30;;;;;;;11.35;4.68;;;;;;;17.24;57.86;96733.13;4969166;28;20034;-82
2023/04/03 08:12:55;;;;;;;5.78;3.53;;;;;;;17.48;54.76;96718.06;4959242;28;20485;-81
2023/04/03 08:15:21;;;;;;;7.07;4.38;;;;;;;17.56;55.54;96716.34;4960284;28;20030;-81
2023/04/03 08:17:47;;;;;;;16.52;7.95;;;;;;;17.87;54.63;96720.22;4959718;28;20041;-81
2023/04/03 08:20:12;;;;;;;11.27;6.03;;;;;;;17.86;53.79;96718.56;4959234;28;20117;-80
2023/04/03 08:22:38;;;;;;;10.52;6.35;;;;;;;17.79;53.74;96705.81;4975646;28;20109;-81
2023/04/03 08:25:04;;;;;;;32.63;17.20;;;;;;;17.92;53.81;96706.25;4959372;28;20026;-82
2023/04/03 08:27:29;;;;;;;14.98;7.75;;;;;;;18.47;52.50;96712.06;4959370;28;20033;-81
2023/04/03 08:29:56;;;;;;;13.55;7.13;;;;;;;19.44;49.27;96704.16;4975641;28;20084;-81
2023/04/03 08:32:22;;;;;;;14.52;7.45;;;;;;;19.97;47.74;96687.25;4959430;28;20034;-81
2023/04/03 08:34:48;;;;;;;14.02;7.70;;;;;;;19.89;47.46;96692.69;4959385;28;20450;-81
2023/04/03 08:37:15;;;;;;;17.73;8.40;;;;;;;19.14;48.53;96666.81;4942378;28;20046;-81
2023/04/03 08:39:41;;;;;;;15.25;7.38;;;;;;;19.77;47.08;96664.25;4935125;28;20100;-81
2023/04/03 08:42:30;;;;;;;11.60;6.47;;;;;;;19.25;48.08;96666.50;4955551;28;20558;-80
2023/04/03 08:45:06;;;;;;;11.75;6.55;;;;;;;19.28;48.38;96677.00;4955586;28;20086;-81
2023/04/03 08:47:47;;;;;;;10.18;6.25;;;;;;;19.19;48.53;96675.31;4955714;28;20022;-82
2023/04/03 08:50:16;;;;;;;10.25;5.53;;;;;;;18.57;49.85;96664.06;4955695;28;20027;-82
2023/04/03 08:52:48;;;;;;;10.77;6.07;;;;;;;19.18;49.50;96669.03;4939283;28;20426;-82
2023/04/03 08:55:40;;;;;;;18.30;10.43;;;;;;;19.32;48.67;96662.06;4940180;28;20030;-81
2023/04/03 08:58:10;;;;;;;30.63;17.73;;;;;;;18.71;49.71;96647.13;4961603;28;20097;-82
2023/04/03 09:00:51;;;;;;;16.83;6.10;;;;;;;19.06;49.72;96659.53;4939933;28;20499;-82
2023/04/03 09:03:19;;;;;;;22.23;9.05;;;;;;;18.34;51.56;96638.56;4955733;28;20052;-80
2023/04/03 09:06:21;;;;;;;10.75;5.88;;;;;;;18.04;52.63;96647.25;4939642;28;20023;-81
2023/04/03 09:08:51;;;;;;;10.47;5.83;;;;;;;17.68;54.43;96655.56;4917618;28;20499;-81
2023/04/03 09:11:41;;;;;;;11.57;5.22;;;;;;;18.48;53.22;96661.47;4939336;28;20034;-82
2023/04/03 09:14:13;;;;;;;10.50;3.92;;;;;;;18.60;52.98;96668.28;4972792;28;20114;-80
2023/04/03 09:16:57;;;;;;;7.75;3.80;;;;;;;18.07;53.69;96644.22;4955038;28;20045;-81
2023/04/03 09:19:36;;;;;;;5.25;2.85;;;;;;;17.79;54.16;96649.84;4955018;28;20037;-81
2023/04/03 09:22:16;;;;;;;9.23;4.22;;;;;;;17.71;55.04;96651.69;4955491;28;20478;-81
2023/04/03 09:24:44;;;;;;;4.28;3.05;;;;;;;17.44;55.84;96636.47;4939117;28;20030;-80
2023/04/03 09:27:11;;;;;;;8.85;3.67;;;;;;;17.10;56.97;96644.47;4956149;28;20474;-80
2023/04/03 09:29:40;;;;;;;6.40;2.72;;;;;;;16.67;59.26;96656.09;4939130;28;20035;-80
2023/04/03 09:32:18;;;;;;;5.45;3.05;;;;;;;16.97;59.22;96654.84;4955004;28;20027;-82
2023/04/03 09:34:44;;;;;;;16.60;8.38;;;;;;;16.72;60.56;96653.78;4955601;28;20034;-82
2023/04/03 09:37:48;;;;;;;4.32;2.67;;;;;;;16.16;63.43;96642.38;4955307;28;20041;-82
2023/04/03 09:40:25;;;;;;;10.30;3.47;;;;;;;16.30;65.86;96654.50;4969411;28;20033;-81
2023/04/03 09:42:56;;;;;;;7.75;3.78;;;;;;;16.41;63.94;96644.34;4991670;28;20030;-81
2023/04/03 09:45:33;;;;;;;13.43;4.70;;;;;;;16.49;63.98;96638.19;4974593;28;20033;-82
2023/04/03 09:48:23;;;;;;;8.48;3.65;;;;;;;17.18;60.83;96647.25;4958706;28;20019;-81
2023/04/03 09:50:56;;;;;;;10.02;3.78;;;;;;;17.50;57.23;96638.53;4958297;28;20038;-81
2023/04/03 09:53:39;;;;;;;10.52;3.40;;;;;;;17.91;56.13;96636.88;4991647;28;20060;-81
2023/04/03 09:56:26;;;;;;;6.03;4.07;;;;;;;18.28;54.89;96634.66;4956581;28;20123;-83
2023/04/03 09:58:58;;;;;;;7.78;3.90;;;;;;;18.41;53.92;96634.19;4958090;28;20038;-81
2023/04/03 10:01:32;;;;;;;3.03;2.05;;;;;;;18.67;52.66;96623.28;4967224;28;20557;-81
2023/04/03 10:04:11;;;;;;;7.30;2.30;;;;;;;19.18;50.98;96617.50;4974471;28;20045;-84
2023/04/03 10:06:46;;;;;;;44.42;24.80;;;;;;;18.26;50.20;96589.81;4962169;28;20037;-83
2023/04/03 10:09:32;;;;;;;17.10;8.63;;;;;;;17.27;53.46;96577.88;4975665;28;20034;-81
2023/04/03 10:12:06;;;;;;;12.52;7.13;;;;;;;17.43;52.92;96569.88;4958161;28;20038;-82
2023/04/03 10:14:58;;;;;;;7.13;1.60;;;;;;;17.87;52.89;96574.13;4951247;28;20501;-82
2023/04/03 10:17:34;;;;;;;3.30;2.10;;;;;;;18.45;50.79;96594.94;4974307;28;20117;-81
2023/04/03 10:20:09;;;;;;;5.35;2.00;;;;;;;18.36;51.52;96585.94;4974246;28;20273;-81
2023/04/03 10:22:44;;;;;;;3.63;1.90;;;;;;;18.91;49.96;96591.63;4974607;28;20042;-83
2023/04/03 10:25:23;;;;;;;1.77;1.30;;;;;;;19.07;49.15;96576.34;4974475;28;20031;-82
2023/04/03 10:27:59;;;;;;;1.52;1.10;;;;;;;19.07;48.72;96568.22;4992017;28;20056;-82
2023/04/03 10:30:47;;;;;;;1.67;1.08;;;;;;;19.14;48.42;96553.78;4993742;28;20026;-81
2023/04/03 10:33:31;;;;;;;1.23;0.95;;;;;;;19.00;48.50;96578.03;4978047;28;20026;-81
2023/04/03 10:36:11;;;;;;;1.73;0.90;;;;;;;18.82;48.91;96554.69;4977680;28;20129;-80
2023/04/03 10:38:48;;;;;;;1.10;0.98;;;;;;;19.06;49.07;96572.78;4958396;28;20529;-81
2023/04/03 10:41:31;;;;;;;1.17;1.00;;;;;;;18.88;49.10;96555.88;4971105;28;20097;-80
2023/04/03 10:43:57;;;;;;;2.25;1.13;;;;;;;18.83;49.25;96571.78;4996090;28;20030;-81
2023/04/03 10:46:29;;;;;;;1.77;1.00;;;;;;;18.58;49.44;96541.13;4977901;28;20476;-80
2023/04/03 10:49:01;;;;;;;1.73;1.20;;;;;;;18.26;49.50;96546.50;4977785;28;20470;-82
2023/04/03 10:51:43;;;;;;;6.13;2.58;;;;;;;18.31;49.44;96544.97;4961620;28;20092;-81
2023/04/03 10:54:20;;;;;;;1.70;1.05;;;;;;;18.01;49.94;96531.22;4958598;28;20426;-81
2023/04/03 10:56:53;;;;;;;4.65;0.95;;;;;;;17.83;50.31;96518.69;4962797;28;20044;-80
2023/04/03 10:59:26;;;;;;;3.13;1.20;;;;;;;18.04;51.49;96533.59;4961531;28;20504;-82
2023/04/03 11:01:56;;;;;;;1.88;1.02;;;;;;;17.70;50.87;96518.28;4977803;28;20022;-81
2023/04/03 11:04:25;;;;;;;8.60;2.45;;;;;;;17.68;51.71;96520.31;4961024;28;20453;-81
2023/04/03 11:06:57;;;;;;;2.17;1.17;;;;;;;17.61;51.27;96503.03;4956996;28;20023;-81
2023/04/03 11:09:29;;;;;;;2.17;1.00;;;;;;;17.65;51.44;96509.81;4974241;28;20405;-81
2023/04/03 11:12:10;;;;;;;3.35;1.85;;;;;;;17.32;52.63;96492.59;4977207;28;20114;-82
2023/04/03 11:14:36;;;;;;;3.83;1.90;;;;;;;17.30;52.21;96469.44;4977437;28;20484;-80
2023/04/03 11:17:17;;;;;;;2.47;1.42;;;;;;;17.52;54.00;96509.41;4977616;28;20037;-81
2023/04/03 11:20:06;;;;;;;2.20;1.20;;;;;;;17.58;52.85;96508.78;4994687;28;20507;-81
2023/04/03 11:22:42;;;;;;;4.18;1.20;;;;;;;17.51;52.09;96490.63;4959693;28;20035;-82
2023/04/03 11:25:11;;;;;;;2.78;1.10;;;;;;;17.65;52.33;96503.56;4961187;28;20022;-81
2023/04/03 11:27:57;;;;;;;3.63;2.30;;;;;;;17.11;52.84;96483.19;4977066;28;20486;-81
2023/04/03 11:31:05;;;;;;;5.05;2.40;;;;;;;17.04;54.81;96501.06;4957883;28;20062;-82
2023/04/03 11:34:18;;;;;;;5.78;2.13;;;;;;;16.79;53.00;96478.47;4984112;28;20034;-81
2023/04/03 11:36:54;;;;;;;3.13;2.10;;;;;;;16.70;53.99;96484.81;4968044;28;20422;-81